createdAt,value
2023-04-07T00:01:43.401Z,83.80
2023-04-07T00:04:10.357Z,84.10
2023-04-07T00:06:37.207Z,83.20
2023-04-07T00:09:03.941Z,83.60
2023-04-07T00:11:30.920Z,83.90
2023-04-07T00:13:57.824Z,84.40
2023-04-07T00:16:24.617Z,84.50
2023-04-07T00:18:51.392Z,84.80
2023-04-07T00:21:18.202Z,85.00
2023-04-07T00:23:45.104Z,84.90
2023-04-07T00:26:11.925Z,84.50
2023-04-07T00:28:38.744Z,84.10
2023-04-07T00:31:05.914Z,83.70
2023-04-07T00:33:33.070Z,83.70
2023-04-07T00:36:00.109Z,83.70
2023-04-07T00:38:27.257Z,84.10
2023-04-07T00:40:59.320Z,84.30
2023-04-07T00:43:26.589Z,84.40
2023-04-07T00:45:54.287Z,83.90
2023-04-07T00:48:21.643Z,83.90
2023-04-07T00:50:48.485Z,84.20
2023-04-07T00:53:16.580Z,84.10
2023-04-07T00:55:43.749Z,83.70
2023-04-07T00:58:11.006Z,84.00
2023-04-07T01:00:55.314Z,84.60
2023-04-07T01:03:32.344Z,85.20
2023-04-07T01:06:02.316Z,85.50
2023-04-07T01:08:44.028Z,85.00
2023-04-07T01:11:17.516Z,84.20
2023-04-07T01:13:49.756Z,84.60
2023-04-07T01:16:32.926Z,84.80
2023-04-07T01:19:18.406Z,85.30
2023-04-07T01:21:48.865Z,85.80
2023-04-07T01:25:02.808Z,86.10
2023-04-07T01:27:43.598Z,86.30
2023-04-07T01:30:13.202Z,85.80
2023-04-07T01:32:47.514Z,85.50
2023-04-07T01:35:15.924Z,85.40
2023-04-07T01:37:43.408Z,84.70
2023-04-07T01:40:11.549Z,84.10
2023-04-07T01:42:39.763Z,83.60
2023-04-07T01:45:07.775Z,84.00
2023-04-07T01:47:37.618Z,83.80
2023-04-07T01:50:09.103Z,83.80
2023-04-07T01:52:36.912Z,84.60
2023-04-07T01:55:11.266Z,84.30
2023-04-07T01:57:38.862Z,83.80
2023-04-07T02:00:06.853Z,84.00
2023-04-07T02:02:41.426Z,84.50
2023-04-07T02:05:12.556Z,84.70
2023-04-07T02:07:46.924Z,84.30
2023-04-07T02:10:16.258Z,84.80
2023-04-07T02:12:46.289Z,84.80
2023-04-07T02:15:14.144Z,84.60
2023-04-07T02:17:44.628Z,85.00
2023-04-07T02:20:12.840Z,85.20
2023-04-07T02:22:39.890Z,85.50
2023-04-07T02:25:24.677Z,85.70
2023-04-07T02:27:52.248Z,86.20
2023-04-07T02:30:19.760Z,86.40
2023-04-07T02:32:46.572Z,87.00
2023-04-07T02:35:13.360Z,87.50
2023-04-07T02:37:40.311Z,88.20
2023-04-07T02:40:07.943Z,87.40
2023-04-07T02:42:34.834Z,86.50
2023-04-07T02:45:01.592Z,85.60
2023-04-07T02:47:28.866Z,85.50
2023-04-07T02:49:57.409Z,85.70
2023-04-07T02:52:24.150Z,85.30
2023-04-07T02:54:51.504Z,85.10
2023-04-07T02:57:18.600Z,85.00
2023-04-07T02:59:45.456Z,85.20
2023-04-07T03:02:12.434Z,85.30
2023-04-07T03:04:39.338Z,85.40
2023-04-07T03:07:06.116Z,85.00
2023-04-07T03:09:32.885Z,85.30
2023-04-07T03:11:59.780Z,85.50
2023-04-07T03:14:26.744Z,85.80
2023-04-07T03:16:53.531Z,85.80
2023-04-07T03:19:20.282Z,85.80
2023-04-07T03:21:47.210Z,86.10
2023-04-07T03:24:13.979Z,86.60
2023-04-07T03:26:41.254Z,86.30
2023-04-07T03:29:08.015Z,86.00
2023-04-07T03:31:34.803Z,86.00
2023-04-07T03:34:01.574Z,85.90
2023-04-07T03:36:28.594Z,86.10
2023-04-07T03:38:55.784Z,86.10
2023-04-07T03:41:22.529Z,85.90
2023-04-07T03:43:49.380Z,86.10
2023-04-07T03:46:16.287Z,85.40
2023-04-07T03:48:43.079Z,85.90
2023-04-07T03:51:09.841Z,86.00
2023-04-07T03:53:36.539Z,86.10
2023-04-07T03:56:03.602Z,85.60
2023-04-07T03:58:30.367Z,85.70
2023-04-07T04:00:57.241Z,85.70
2023-04-07T04:03:24.090Z,85.50
2023-04-07T04:05:51.207Z,85.90
2023-04-07T04:08:18.175Z,85.80
2023-04-07T04:10:45.016Z,86.10
2023-04-07T04:13:12.352Z,85.40
2023-04-07T04:15:39.470Z,85.70
2023-04-07T04:18:06.530Z,86.10
2023-04-07T04:20:33.684Z,86.50
2023-04-07T04:23:00.519Z,86.50
2023-04-07T04:25:27.310Z,86.50
2023-04-07T04:27:54.062Z,86.30
2023-04-07T04:30:21.106Z,86.50
2023-04-07T04:32:47.960Z,86.50
2023-04-07T04:35:14.805Z,86.50
2023-04-07T04:37:41.818Z,86.60
2023-04-07T04:40:09.396Z,86.60
2023-04-07T04:42:36.329Z,87.10
2023-04-07T04:45:03.305Z,86.40
2023-04-07T04:47:31.101Z,86.10
2023-04-07T04:49:58.016Z,86.10
2023-04-07T04:52:24.778Z,86.30
2023-04-07T04:54:51.598Z,86.40
2023-04-07T04:57:18.325Z,87.00
2023-04-07T04:59:45.696Z,87.30
2023-04-07T05:02:12.571Z,86.70
2023-04-07T05:04:39.520Z,87.00
2023-04-07T05:07:06.322Z,87.50
2023-04-07T05:09:33.560Z,87.10
2023-04-07T05:12:01.727Z,87.50
2023-04-07T05:14:28.828Z,86.80
2023-04-07T05:16:56.096Z,86.90
2023-04-07T05:19:22.901Z,86.40
2023-04-07T05:21:49.660Z,86.30
2023-04-07T05:24:16.501Z,86.20
2023-04-07T05:26:43.501Z,86.60
2023-04-07T05:29:10.411Z,86.20
2023-04-07T05:31:37.479Z,85.60
2023-04-07T05:34:04.349Z,86.50
2023-04-07T05:36:31.796Z,86.80
2023-04-07T05:38:59.252Z,86.50
2023-04-07T05:41:26.344Z,86.50
2023-04-07T05:43:53.634Z,86.40
2023-04-07T05:46:20.653Z,86.60
2023-04-07T05:48:47.486Z,86.70
2023-04-07T05:51:15.412Z,86.50
2023-04-07T05:53:42.400Z,86.50
2023-04-07T05:56:09.173Z,86.00
2023-04-07T05:58:35.929Z,85.60
2023-04-07T06:01:02.650Z,85.70
2023-04-07T06:03:30.035Z,85.60
2023-04-07T06:05:58.471Z,85.60
2023-04-07T06:08:25.373Z,85.40
2023-04-07T06:10:52.362Z,85.00
2023-04-07T06:13:19.119Z,85.40
2023-04-07T06:15:46.338Z,84.80
2023-04-07T06:18:13.098Z,84.30
2023-04-07T06:20:40.225Z,84.50
2023-04-07T06:23:07.138Z,84.30
2023-04-07T06:25:34.131Z,84.20
2023-04-07T06:28:01.237Z,84.30
2023-04-07T06:30:28.096Z,84.10
2023-04-07T06:32:54.989Z,82.60
2023-04-07T06:35:21.900Z,82.90
2023-04-07T06:37:49.175Z,81.90
2023-04-07T06:40:16.094Z,81.70
2023-04-07T06:42:43.335Z,82.20
2023-04-07T06:45:10.433Z,81.50
2023-04-07T06:47:38.272Z,81.30
2023-04-07T06:50:05.773Z,81.00
2023-04-07T06:52:32.523Z,81.00
2023-04-07T06:54:59.657Z,81.10
2023-04-07T06:57:27.555Z,80.90
2023-04-07T06:59:54.306Z,79.50
2023-04-07T07:02:21.232Z,79.60
2023-04-07T07:04:48.102Z,79.50
2023-04-07T07:07:15.377Z,79.50
2023-04-07T07:09:42.224Z,79.50
2023-04-07T07:12:10.196Z,80.60
2023-04-07T07:14:37.126Z,78.90
2023-04-07T07:17:04.273Z,78.20
2023-04-07T07:19:31.185Z,78.30
2023-04-07T07:21:58.101Z,78.30
2023-04-07T07:24:28.888Z,77.70
2023-04-07T07:26:57.130Z,78.80
2023-04-07T07:29:23.896Z,77.30
2023-04-07T07:31:51.109Z,76.00
2023-04-07T07:34:18.002Z,77.70
2023-04-07T07:36:45.310Z,78.10
2023-04-07T07:39:12.228Z,75.90
2023-04-07T07:41:38.946Z,75.40
2023-04-07T07:44:06.068Z,75.20
2023-04-07T07:46:32.927Z,75.10
2023-04-07T07:49:04.756Z,76.10
2023-04-07T07:51:31.679Z,75.30
2023-04-07T07:53:58.489Z,75.20
2023-04-07T07:56:25.456Z,74.40
2023-04-07T07:58:52.293Z,73.50
2023-04-07T08:01:19.138Z,73.10
2023-04-07T08:03:46.262Z,70.90
2023-04-07T08:06:13.149Z,69.70
2023-04-07T08:08:40.555Z,69.90
2023-04-07T08:11:07.971Z,67.90
2023-04-07T08:13:34.869Z,64.60
2023-04-07T08:16:01.961Z,65.60
2023-04-07T08:18:28.934Z,65.90
2023-04-07T08:20:57.480Z,65.50
2023-04-07T08:23:24.330Z,64.20
2023-04-07T08:25:51.137Z,62.80
2023-04-07T08:28:17.948Z,61.20
2023-04-07T08:30:44.681Z,64.00
2023-04-07T08:33:11.470Z,62.00
2023-04-07T08:35:38.206Z,62.70
2023-04-07T08:38:05.740Z,59.20
2023-04-07T08:40:33.623Z,58.70
2023-04-07T08:43:01.359Z,62.70
2023-04-07T08:45:29.442Z,57.20
2023-04-07T08:47:57.245Z,57.60
2023-04-07T08:50:27.275Z,57.10
2023-04-07T08:52:56.585Z,56.30
2023-04-07T08:55:24.044Z,56.40
2023-04-07T08:57:52.689Z,56.00
2023-04-07T09:00:20.075Z,57.20
2023-04-07T09:02:49.360Z,55.00
2023-04-07T09:05:16.408Z,54.40
2023-04-07T09:07:43.519Z,53.90
2023-04-07T09:10:11.040Z,54.60
2023-04-07T09:12:38.270Z,54.60
2023-04-07T09:15:08.662Z,54.30
2023-04-07T09:17:35.799Z,52.30
2023-04-07T09:20:04.481Z,52.80
2023-04-07T09:22:42.908Z,55.70
2023-04-07T09:25:13.582Z,53.40
2023-04-07T09:27:40.940Z,53.20
2023-04-07T09:30:12.813Z,51.60
2023-04-07T09:32:41.217Z,50.70
2023-04-07T09:35:08.388Z,52.80
2023-04-07T09:37:35.663Z,53.30
2023-04-07T09:40:02.607Z,53.40
2023-04-07T09:42:32.467Z,50.40
2023-04-07T09:45:03.096Z,52.30
2023-04-07T09:47:32.725Z,50.00
2023-04-07T09:49:59.818Z,49.20
2023-04-07T09:52:50.758Z,48.40
2023-04-07T09:55:21.626Z,48.10
2023-04-07T09:57:52.353Z,52.30
2023-04-07T10:00:19.508Z,49.60
2023-04-07T10:02:46.845Z,47.60
2023-04-07T10:05:13.744Z,51.80
2023-04-07T10:07:42.575Z,52.40
2023-04-07T10:10:10.360Z,50.50
2023-04-07T10:12:41.641Z,47.70
2023-04-07T10:15:09.985Z,45.30
2023-04-07T10:17:40.162Z,46.70
2023-04-07T10:20:09.931Z,45.70
2023-04-07T10:22:41.256Z,44.10
2023-04-07T10:25:11.689Z,45.60
2023-04-07T10:27:54.792Z,42.90
2023-04-07T10:30:26.230Z,47.90
2023-04-07T10:32:54.322Z,44.90
2023-04-07T10:35:22.339Z,44.00
2023-04-07T10:38:07.948Z,46.10
2023-04-07T10:40:35.606Z,44.40
2023-04-07T10:43:02.805Z,47.30
2023-04-07T10:45:59.675Z,43.90
2023-04-07T10:48:28.610Z,41.30
2023-04-07T10:51:08.363Z,42.10
2023-04-07T10:53:35.404Z,38.00
2023-04-07T10:56:02.758Z,39.50
2023-04-07T10:58:30.726Z,42.40
2023-04-07T11:01:00.896Z,42.00
2023-04-07T11:03:34.084Z,41.60
2023-04-07T11:06:04.568Z,42.90
2023-04-07T11:08:48.379Z,40.00
2023-04-07T11:11:34.412Z,39.40
2023-04-07T11:14:01.553Z,40.60
2023-04-07T11:16:37.201Z,38.40
2023-04-07T11:19:03.979Z,46.70
2023-04-07T11:21:31.603Z,43.00
2023-04-07T11:23:58.668Z,39.50
2023-04-07T11:26:25.529Z,37.40
2023-04-07T11:28:54.446Z,40.40
2023-04-07T11:31:26.261Z,36.40
2023-04-07T11:33:59.152Z,37.70
2023-04-07T11:36:29.833Z,37.80
2023-04-07T11:38:57.709Z,38.20
2023-04-07T11:41:28.775Z,37.30
2023-04-07T11:44:26.568Z,36.70
2023-04-07T11:46:58.800Z,38.90
2023-04-07T11:49:30.043Z,38.30
2023-04-07T11:52:07.425Z,39.30
2023-04-07T11:54:47.699Z,37.10
2023-04-07T11:57:14.870Z,37.80
2023-04-07T11:59:42.317Z,38.30
2023-04-07T12:02:09.770Z,34.30
2023-04-07T12:04:40.161Z,35.90
2023-04-07T12:07:11.474Z,37.00
2023-04-07T12:09:38.882Z,35.60
2023-04-07T12:12:07.634Z,34.30
2023-04-07T12:14:35.516Z,33.50
2023-04-07T12:17:03.596Z,37.40
2023-04-07T12:19:35.834Z,33.10
2023-04-07T12:22:03.913Z,36.90
2023-04-07T12:24:32.275Z,39.30
2023-04-07T12:26:59.536Z,34.20
2023-04-07T12:29:26.408Z,35.10
2023-04-07T12:31:53.306Z,33.90
2023-04-07T12:34:20.622Z,35.70
2023-04-07T12:36:48.208Z,33.60
2023-04-07T12:39:16.595Z,33.20
2023-04-07T12:41:45.705Z,28.80
2023-04-07T12:44:12.552Z,29.30
2023-04-07T12:46:39.303Z,27.20
2023-04-07T12:49:06.523Z,27.50
2023-04-07T12:51:33.573Z,30.50
2023-04-07T12:54:03.533Z,27.30
2023-04-07T12:56:30.643Z,30.60
2023-04-07T12:58:57.890Z,33.50
2023-04-07T13:01:24.883Z,34.00
2023-04-07T13:03:52.115Z,32.80
2023-04-07T13:06:19.806Z,30.10
2023-04-07T13:08:46.539Z,29.20
2023-04-07T13:11:13.326Z,28.70
2023-04-07T13:13:40.349Z,27.80
2023-04-07T13:16:07.867Z,27.60
2023-04-07T13:18:34.600Z,26.60
2023-04-07T13:23:42.222Z,26.60
2023-04-07T13:26:10.423Z,27.90
2023-04-07T13:28:37.392Z,24.70
2023-04-07T13:31:04.540Z,25.20
2023-04-07T13:33:31.424Z,27.50
2023-04-07T13:35:58.247Z,25.00
2023-04-07T13:38:25.386Z,25.20
2023-04-07T13:40:52.092Z,25.90
2023-04-07T13:43:20.108Z,25.90
2023-04-07T13:45:47.035Z,25.00
2023-04-07T13:48:13.849Z,25.90
2023-04-07T13:50:40.913Z,28.90
2023-04-07T13:53:08.003Z,26.10
2023-04-07T13:55:34.766Z,24.30
2023-04-07T13:58:02.600Z,24.40
2023-04-07T14:00:29.978Z,25.50
2023-04-07T14:02:57.027Z,27.70
2023-04-07T14:05:24.449Z,24.90
2023-04-07T14:07:51.526Z,26.30
2023-04-07T14:10:18.676Z,27.10
2023-04-07T14:12:45.409Z,28.20
2023-04-07T14:15:12.272Z,25.30
2023-04-07T14:17:39.020Z,26.20
2023-04-07T14:20:06.520Z,28.90
2023-04-07T14:22:33.362Z,28.20
2023-04-07T14:25:00.529Z,27.80
2023-04-07T14:27:31.104Z,27.20
2023-04-07T14:29:59.584Z,28.30
2023-04-07T14:32:29.488Z,30.50
2023-04-07T14:34:59.487Z,29.30
2023-04-07T14:37:28.544Z,30.80
2023-04-07T14:40:02.096Z,28.20
2023-04-07T14:42:30.360Z,30.70
2023-04-07T14:45:03.216Z,29.90
2023-04-07T14:47:31.466Z,30.20
2023-04-07T14:49:58.768Z,33.30
2023-04-07T14:52:25.953Z,34.90
2023-04-07T14:54:52.851Z,33.20
2023-04-07T14:57:19.694Z,31.50
2023-04-07T14:59:47.634Z,31.00
2023-04-07T15:02:14.672Z,28.10
2023-04-07T15:04:41.594Z,28.00
2023-04-07T15:07:08.582Z,29.90
2023-04-07T15:09:35.677Z,25.70
2023-04-07T15:12:02.468Z,28.40
2023-04-07T15:14:29.817Z,30.60
2023-04-07T15:16:56.635Z,27.30
2023-04-07T15:19:23.526Z,34.20
2023-04-07T15:21:50.338Z,31.40
2023-04-07T15:24:17.124Z,31.90
2023-04-07T15:26:44.295Z,31.50
2023-04-07T15:29:11.140Z,30.70
2023-04-07T15:31:37.993Z,34.70
2023-04-07T15:34:05.328Z,32.90
2023-04-07T15:36:32.091Z,33.10
2023-04-07T15:39:04.236Z,35.20
2023-04-07T15:41:31.164Z,33.00
2023-04-07T15:44:00.009Z,32.40
2023-04-07T15:46:27.213Z,33.70
2023-04-07T15:48:53.982Z,34.70
2023-04-07T15:51:20.819Z,32.70
2023-04-07T15:53:48.405Z,33.30
2023-04-07T15:56:15.472Z,33.30
2023-04-07T15:58:42.206Z,32.60
2023-04-07T16:01:09.192Z,32.60
2023-04-07T16:03:36.490Z,35.50
2023-04-07T16:06:03.487Z,35.10
2023-04-07T16:08:30.441Z,33.40
2023-04-07T16:10:57.192Z,33.90
2023-04-07T16:13:23.948Z,33.90
2023-04-07T16:15:54.909Z,33.30
2023-04-07T16:18:21.816Z,31.80
2023-04-07T16:20:48.575Z,31.90
2023-04-07T16:23:15.333Z,34.10
2023-04-07T16:25:42.115Z,31.90
2023-04-07T16:28:08.866Z,35.60
2023-04-07T16:30:36.432Z,33.00
2023-04-07T16:33:05.252Z,33.40
2023-04-07T16:35:32.639Z,33.80
2023-04-07T16:38:04.281Z,33.80
2023-04-07T16:40:31.433Z,33.30
2023-04-07T16:42:58.256Z,34.30
2023-04-07T16:45:24.968Z,36.30
2023-04-07T16:47:52.094Z,38.90
2023-04-07T16:50:19.047Z,42.60
2023-04-07T16:52:47.684Z,39.90
2023-04-07T16:55:17.497Z,38.90
2023-04-07T16:57:44.317Z,39.40
2023-04-07T17:00:14.362Z,39.20
2023-04-07T17:02:41.395Z,41.10
2023-04-07T17:05:08.895Z,43.60
2023-04-07T17:07:36.229Z,46.60
2023-04-07T17:10:03.596Z,48.70
2023-04-07T17:12:30.571Z,50.10
2023-04-07T17:14:57.321Z,49.80
2023-04-07T17:17:24.155Z,47.70
2023-04-07T17:19:51.577Z,46.50
2023-04-07T17:22:18.831Z,47.20
2023-04-07T17:24:45.565Z,48.70
2023-04-07T17:27:12.324Z,49.50
2023-04-07T17:29:39.299Z,51.60
2023-04-07T17:32:07.741Z,50.20
2023-04-07T17:34:35.332Z,50.30
2023-04-07T17:37:02.557Z,52.20
2023-04-07T17:39:29.629Z,54.60
2023-04-07T17:41:56.398Z,58.10
2023-04-07T17:44:23.138Z,58.50
2023-04-07T17:46:49.991Z,59.00
2023-04-07T17:49:17.375Z,60.40
2023-04-07T17:51:44.235Z,59.00
2023-04-07T17:54:10.940Z,57.70
2023-04-07T17:56:38.249Z,57.30
2023-04-07T17:59:05.094Z,57.40
2023-04-07T18:01:32.228Z,56.70
2023-04-07T18:03:59.986Z,57.90
2023-04-07T18:06:28.479Z,58.10
2023-04-07T18:08:55.603Z,59.60
2023-04-07T18:11:22.854Z,61.00
2023-04-07T18:13:49.866Z,61.90
2023-04-07T18:16:21.410Z,61.90
2023-04-07T18:18:49.548Z,62.00
2023-04-07T18:21:16.499Z,62.50
2023-04-07T18:23:43.293Z,66.40
2023-04-07T18:26:10.331Z,67.00
2023-04-07T18:28:37.192Z,67.50
2023-04-07T18:31:06.957Z,69.20
2023-04-07T18:33:35.002Z,68.70
2023-04-07T18:36:07.645Z,69.20
2023-04-07T18:38:36.375Z,68.70
2023-04-07T18:41:03.698Z,69.40
2023-04-07T18:43:31.320Z,70.00
2023-04-07T18:45:58.543Z,69.70
2023-04-07T18:48:26.542Z,70.70
2023-04-07T18:50:57.273Z,70.90
2023-04-07T18:53:25.580Z,71.30
2023-04-07T18:55:52.585Z,71.60
2023-04-07T18:58:21.871Z,71.30
2023-04-07T19:00:50.153Z,71.70
2023-04-07T19:03:17.460Z,72.40
2023-04-07T19:05:47.655Z,72.50
2023-04-07T19:08:16.286Z,73.60
2023-04-07T19:10:43.836Z,74.00
2023-04-07T19:13:10.962Z,73.80
2023-04-07T19:15:39.212Z,73.30
2023-04-07T19:18:07.823Z,72.60
2023-04-07T19:20:34.590Z,72.90
2023-04-07T19:23:01.874Z,74.50
2023-04-07T19:25:30.680Z,74.70
2023-04-07T19:27:59.013Z,74.30
2023-04-07T19:30:25.958Z,74.90
2023-04-07T19:32:53.040Z,73.90
2023-04-07T19:35:21.005Z,73.70
2023-04-07T19:37:51.995Z,75.90
2023-04-07T19:40:18.988Z,76.90
2023-04-07T19:42:45.859Z,77.00
2023-04-07T19:45:12.756Z,77.30
2023-04-07T19:47:39.745Z,76.80
2023-04-07T19:50:07.921Z,77.10
2023-04-07T19:52:34.726Z,76.60
2023-04-07T19:55:03.718Z,76.00
2023-04-07T19:57:31.543Z,75.40
2023-04-07T19:59:58.497Z,75.30
2023-04-07T20:02:26.247Z,76.30
2023-04-07T20:04:53.612Z,74.50
2023-04-07T20:07:20.592Z,76.00
2023-04-07T20:09:47.492Z,77.00
2023-04-07T20:12:14.863Z,79.00
2023-04-07T20:14:41.771Z,80.00
2023-04-07T20:17:08.682Z,80.20
2023-04-07T20:19:35.890Z,80.40
2023-04-07T20:22:02.734Z,79.50
2023-04-07T20:24:30.789Z,78.70
2023-04-07T20:26:57.779Z,78.70
2023-04-07T20:29:24.584Z,78.20
2023-04-07T20:31:51.344Z,78.40
2023-04-07T20:34:18.098Z,79.50
2023-04-07T20:36:44.955Z,81.70
2023-04-07T20:39:11.814Z,82.00
2023-04-07T20:41:42.741Z,80.60
2023-04-07T20:44:09.504Z,79.90
2023-04-07T20:46:36.535Z,80.50
2023-04-07T20:49:05.223Z,80.20
2023-04-07T20:51:32.241Z,79.10
2023-04-07T20:53:58.955Z,79.20
2023-04-07T20:56:25.692Z,79.10
2023-04-07T20:58:52.553Z,78.00
2023-04-07T21:01:19.298Z,76.80
2023-04-07T21:03:46.268Z,78.50
2023-04-07T21:06:13.181Z,76.60
2023-04-07T21:08:39.958Z,74.20
2023-04-07T21:11:06.691Z,75.10
2023-04-07T21:13:33.556Z,76.00
2023-04-07T21:16:01.311Z,76.30
2023-04-07T21:18:28.784Z,75.70
2023-04-07T21:20:59.475Z,77.40
2023-04-07T21:23:26.317Z,77.50
2023-04-07T21:25:53.112Z,78.40
2023-04-07T21:28:19.844Z,79.30
2023-04-07T21:30:46.684Z,79.80
2023-04-07T21:33:14.143Z,79.80
2023-04-07T21:35:42.217Z,79.20
2023-04-07T21:38:09.057Z,80.50
2023-04-07T21:40:36.098Z,81.40
2023-04-07T21:43:03.465Z,80.70
2023-04-07T21:45:31.563Z,81.70
2023-04-07T21:47:58.361Z,82.20
2023-04-07T21:50:25.479Z,83.00
2023-04-07T21:52:52.892Z,81.00
2023-04-07T21:55:20.716Z,82.00
2023-04-07T21:57:48.336Z,82.30
2023-04-07T22:00:16.421Z,82.10
2023-04-07T22:02:43.919Z,80.90
2023-04-07T22:05:11.044Z,80.50
2023-04-07T22:07:37.828Z,80.10
2023-04-07T22:10:05.080Z,80.80
2023-04-07T22:12:31.897Z,83.30
2023-04-07T22:14:58.651Z,84.40
2023-04-07T22:17:25.680Z,83.60
2023-04-07T22:19:52.675Z,83.60
2023-04-07T22:22:19.487Z,83.80
2023-04-07T22:24:46.257Z,84.10
2023-04-07T22:27:13.020Z,83.70
2023-04-07T22:29:39.793Z,82.40
2023-04-07T22:32:06.757Z,82.30
2023-04-07T22:34:33.627Z,82.30
2023-04-07T22:37:00.542Z,82.50
2023-04-07T22:39:27.301Z,82.60
2023-04-07T22:41:54.463Z,81.90
2023-04-07T22:44:21.389Z,81.60
2023-04-07T22:46:48.232Z,81.80
2023-04-07T22:49:14.990Z,80.80
2023-04-07T22:51:41.797Z,80.50
2023-04-07T22:54:09.097Z,80.90
2023-04-07T22:56:36.075Z,80.60
2023-04-07T22:59:05.808Z,80.00
2023-04-07T23:01:33.257Z,79.60
2023-04-07T23:04:00.229Z,82.30
2023-04-07T23:06:28.574Z,80.60
2023-04-07T23:08:56.459Z,80.80
2023-04-07T23:11:23.632Z,80.30
2023-04-07T23:13:51.550Z,82.00
2023-04-07T23:16:18.472Z,81.70
2023-04-07T23:18:45.784Z,81.80
2023-04-07T23:21:13.118Z,81.60
2023-04-07T23:23:40.095Z,81.80
2023-04-07T23:26:07.258Z,81.70
2023-04-07T23:28:33.989Z,81.60
2023-04-07T23:31:02.037Z,82.00
2023-04-07T23:33:31.603Z,82.10
2023-04-07T23:35:58.850Z,82.00
2023-04-07T23:38:26.128Z,81.60
2023-04-07T23:40:53.480Z,81.40
2023-04-07T23:43:20.277Z,81.50
2023-04-07T23:45:47.374Z,80.70
2023-04-07T23:48:16.070Z,81.30
2023-04-07T23:50:42.853Z,81.30
2023-04-07T23:53:10.302Z,81.70
2023-04-07T23:55:37.057Z,81.20
2023-04-07T23:58:03.780Z,81.00
